Victor, California
Current Conditions -  °F | °C
As of 1:55 AM on Monday 22 Dec 2014 (Local Time) from KSCK Reporting Station
Haze Haze  
Wind Chill: 57°   Ceiling: 200
Heat Index: 57°   Visibility: 3mi
Dew Point: 57°   Wind: 12mph
Humidity: 100%   Direction: 320°NW
Pressure: 30.25"   Gusts: NA
Location:  38.14°N, 121.2°W
Report Text: KSCK 220955Z 32010KT 3SM BR OVC002 14/14 A3025 RMK AO2 SLP242 T01390139
Loading
Personal Weather Stations






























Interactive Weather Map New forecast layout! Learn more

10-Day Weather Forecast

Advertisements
Track Severe Weather on mobile